メインページ
METAR-TAF:

METAR-TAF

空港 :

ポートランド国際ジェットポート

ポートランド, メイン州, アメリカ合衆国

緯度: 43-38-32N, 経度: 070-18-16W, 海抜: 22m

現時点の気象観測

当レポートは36分前の00:51(UTC)に作成
無風
気温 19°C
湿度 68%
気圧 1026 hPa
視程: 16.1km
高度5500ftの曇り

METAR: KPWM 250051Z 00000KT 10SM OVC055 19/13 A3029 RMK AO2 SLP258 T01890133

時間: 21:27 (01:27 UTC)

予報

当レポートは2時間7分前の23:20(UTC)に作成
予報は25日の 00時(UTC)から 25日の 24時(UTC)まで有効
変向風 2kt
視程: 10km
高度6000ftの雲は散在している
25日の 0900時(UTC)から
東/北東の風 10kt
視程: 10km
晴天

TAF: KPWM 242320Z 2500/2524 VRB02KT P6SM SCT060 FM250900 07010KT P6SM SKC

4,000以上の空港の気象観測と天気予報(METAR報とTAF報)

利用可能な観測所は地図上に黄色い丸と赤い丸で示す。

丸の上にカーソルを重ねると観測所名を参照できる。

次にクリックすると気象観測と天気予報を参照できる。

マップの切り替え:黒色「×」印の緑ボタンをクリックして拡大、「-」印の緑ボタンをクリックして縮小、緑色の三角印をクリックして隣りの地図に切り替え


METAR-TAF: